Time;durP1;ratioP1;P1;durP2;ratioP2;P2;SDS_P1;SDS_P2;PMS_P1;PMS_P2;Temp;Humidity;BMP_temperature;BMP_pressure;BME280_temperature;BME280_humidity;BME280_pressure;Samples;Min_cycle;Max_cycle;Signal;HPM_P1;HPM_P2
2021/10/08 00:03:24;;;;;;;5.47;3.70;;;;;;;13.42;57.17;99100.28;8327595;28;20402;-92
2021/10/08 00:07:27;;;;;;;5.93;3.70;;;;;;;13.32;57.07;99097.19;8322185;28;20216;-91
2021/10/08 00:11:32;;;;;;;7.77;4.77;;;;;;;13.35;57.00;99093.66;8321816;28;20232;-91
2021/10/08 00:15:34;;;;;;;5.03;4.00;;;;;;;13.27;57.33;99097.34;8322344;28;20213;-91
2021/10/08 00:19:37;;;;;;;5.23;3.87;;;;;;;13.33;57.42;99098.91;8322170;28;20209;-91
2021/10/08 00:23:40;;;;;;;5.57;3.83;;;;;;;13.22;57.14;99094.06;8322216;28;20227;-90
2021/10/08 00:27:45;;;;;;;4.80;3.47;;;;;;;13.27;57.29;99096.50;8322124;28;20209;-91
2021/10/08 00:31:48;;;;;;;5.63;3.70;;;;;;;13.21;57.41;99099.31;8328330;28;20224;-88
2021/10/08 00:35:50;;;;;;;3.77;3.40;;;;;;;13.22;57.36;99096.66;8321130;28;20255;-88
2021/10/08 00:39:56;;;;;;;5.67;3.73;;;;;;;13.18;57.64;99096.84;8320901;28;20208;-88
2021/10/08 00:44:01;;;;;;;5.67;3.80;;;;;;;13.22;57.91;99098.41;8321005;28;20208;-91
2021/10/08 00:48:07;;;;;;;5.33;3.83;;;;;;;13.16;57.89;99090.84;8320875;28;20216;-90
2021/10/08 00:52:13;;;;;;;6.63;3.63;;;;;;;13.25;57.83;99090.47;8320561;28;20252;-89
2021/10/08 00:56:17;;;;;;;5.33;3.83;;;;;;;13.27;57.33;99084.34;8320477;28;20208;-89
2021/10/08 01:00:21;;;;;;;5.20;3.90;;;;;;;13.35;56.95;99089.28;8320439;28;20201;-89
2021/10/08 01:04:25;;;;;;;7.17;3.87;;;;;;;13.42;56.99;99087.28;8319737;28;20205;-88
2021/10/08 01:08:28;;;;;;;5.70;3.93;;;;;;;13.23;57.02;99090.56;8319832;28;20205;-89
2021/10/08 01:12:33;;;;;;;5.17;3.80;;;;;;;13.04;58.17;99087.78;8319389;28;20237;-88
2021/10/08 01:16:37;;;;;;;5.93;3.83;;;;;;;13.09;57.82;99082.41;8319724;28;20205;-87
2021/10/08 01:20:42;;;;;;;6.80;3.63;;;;;;;13.06;57.25;99087.72;8319400;28;20205;-88
2021/10/08 01:24:45;;;;;;;4.17;3.60;;;;;;;12.97;57.52;99081.13;8319414;28;20212;-88
2021/10/08 01:28:47;;;;;;;4.33;3.50;;;;;;;12.87;57.36;99085.81;8319057;28;20205;-88
2021/10/08 01:32:50;;;;;;;6.63;3.60;;;;;;;12.84;56.91;99085.91;8319061;28;20225;-88
2021/10/08 01:36:55;;;;;;;6.63;3.60;;;;;;;12.78;57.18;99080.91;8318939;28;20205;-88
2021/10/08 01:40:58;;;;;;;5.80;3.53;;;;;;;12.70;57.24;99080.34;8318341;28;20205;-90
2021/10/08 01:45:01;;;;;;;4.67;3.27;;;;;;;12.73;57.34;99071.59;8318848;28;20204;-89
2021/10/08 01:49:04;;;;;;;4.67;3.50;;;;;;;12.62;57.68;99062.44;8318685;28;20216;-88
2021/10/08 01:53:11;;;;;;;7.83;3.80;;;;;;;12.75;57.20;99068.03;8318675;28;20201;-89
2021/10/08 01:57:14;;;;;;;4.03;3.63;;;;;;;12.68;57.69;99067.41;8318490;28;20397;-89
2021/10/08 02:01:17;;;;;;;6.63;3.87;;;;;;;12.71;57.85;99066.44;8318435;28;20240;-88
2021/10/08 02:05:20;;;;;;;4.87;3.47;;;;;;;12.77;57.59;99070.56;8318495;28;20275;-89
2021/10/08 02:09:25;;;;;;;5.80;3.50;;;;;;;12.71;57.47;99075.09;8318161;28;20204;-89
2021/10/08 02:13:28;;;;;;;5.80;3.40;;;;;;;12.65;57.72;99064.06;8318058;28;20247;-89
2021/10/08 02:17:31;;;;;;;6.33;4.00;;;;;;;12.64;57.56;99077.94;8317957;28;20200;-89
2021/10/08 02:21:33;;;;;;;6.47;3.73;;;;;;;12.65;57.76;99064.06;8317815;28;20385;-87
2021/10/08 02:25:38;;;;;;;7.23;3.90;;;;;;;12.68;57.91;99063.97;8318102;28;20200;-90
2021/10/08 02:29:41;;;;;;;7.23;4.03;;;;;;;12.68;57.60;99067.41;8318501;28;20235;-90
2021/10/08 02:33:44;;;;;;;5.50;3.83;;;;;;;12.60;58.16;99059.00;8321479;28;20201;-90
2021/10/08 02:37:47;;;;;;;6.00;3.80;;;;;;;12.76;58.16;99063.69;8318257;28;20208;-90
2021/10/08 02:41:52;;;;;;;7.83;4.07;;;;;;;12.70;58.68;99057.81;8318036;28;20201;-91
2021/10/08 02:45:54;;;;;;;7.17;3.70;;;;;;;12.75;58.62;99055.03;8317502;28;20205;-90
2021/10/08 02:49:57;;;;;;;5.77;3.67;;;;;;;12.71;58.74;99051.69;8317761;28;20231;-90
2021/10/08 02:54:01;;;;;;;4.83;3.60;;;;;;;12.76;58.69;99054.13;8319637;28;20212;-89
2021/10/08 02:58:05;;;;;;;7.10;3.67;;;;;;;12.74;58.27;99055.94;8323972;28;20201;-89
2021/10/08 03:02:08;;;;;;;7.90;3.97;;;;;;;12.86;57.76;99050.28;8323790;28;20512;-89
2021/10/08 03:06:11;;;;;;;7.77;3.97;;;;;;;12.62;58.67;99045.97;8324016;28;20208;-91
2021/10/08 03:10:17;;;;;;;6.20;3.60;;;;;;;12.52;59.11;99048.06;8325536;28;20228;-90
2021/10/08 03:14:22;;;;;;;7.57;3.70;;;;;;;12.77;58.54;99058.41;8335285;28;20235;-89
2021/10/08 03:18:24;;;;;;;4.40;3.07;;;;;;;12.62;58.71;99059.84;8323443;28;20201;-87
2021/10/08 03:22:27;;;;;;;4.20;3.73;;;;;;;12.59;58.47;99056.50;8323268;28;20208;-87
2021/10/08 03:26:33;;;;;;;5.90;3.37;;;;;;;12.52;57.82;99059.28;8323243;28;20205;-88
2021/10/08 03:30:37;;;;;;;7.60;3.73;;;;;;;12.57;57.41;99058.31;8323059;28;20423;-87
2021/10/08 03:34:40;;;;;;;5.03;4.00;;;;;;;12.47;57.70;99056.03;8322663;28;20205;-88
2021/10/08 03:38:43;;;;;;;5.13;3.70;;;;;;;12.44;57.75;99053.50;8322672;28;20209;-88
2021/10/08 03:42:50;;;;;;;5.50;3.90;;;;;;;12.54;57.51;99059.25;8322738;28;20398;-88
2021/10/08 03:46:56;;;;;;;5.83;3.87;;;;;;;12.29;58.26;99052.28;8322351;28;20198;-88
2021/10/08 03:51:00;;;;;;;5.77;3.73;;;;;;;12.32;58.38;99053.94;8322528;28;20228;-88
2021/10/08 03:55:03;;;;;;;6.00;3.97;;;;;;;12.25;58.14;99048.09;8322419;28;20228;-89
2021/10/08 03:59:06;;;;;;;6.93;4.00;;;;;;;12.37;58.44;99059.81;8321918;28;20385;-88
2021/10/08 04:03:11;;;;;;;5.43;3.90;;;;;;;12.44;58.46;99061.31;8311011;28;20518;-90
2021/10/08 04:07:14;;;;;;;5.47;4.00;;;;;;;12.44;59.05;99063.91;8349526;28;20214;-90
2021/10/08 04:11:16;;;;;;;8.40;3.80;;;;;;;12.44;58.61;99044.88;8354730;28;20273;-90
2021/10/08 04:15:21;;;;;;;9.83;4.27;;;;;;;12.50;58.95;99055.06;8354754;28;20207;-90
2021/10/08 04:19:25;;;;;;;7.97;3.73;;;;;;;12.55;59.31;99063.53;8354523;28;20211;-91
2021/10/08 04:23:28;;;;;;;6.30;3.80;;;;;;;12.61;58.86;99052.09;8354530;28;20408;-90
2021/10/08 04:27:31;;;;;;;5.47;3.67;;;;;;;12.62;59.22;99052.03;8354634;28;20212;-89
2021/10/08 04:31:34;;;;;;;5.13;3.80;;;;;;;12.64;59.36;99041.56;8336951;28;20232;-89
2021/10/08 04:35:38;;;;;;;6.63;3.63;;;;;;;12.67;59.09;99047.50;8353961;28;20387;-89
2021/10/08 04:39:41;;;;;;;5.00;3.73;;;;;;;12.68;59.70;99053.56;8353893;28;20204;-89
2021/10/08 04:43:45;;;;;;;5.73;3.87;;;;;;;12.71;59.31;99056.03;8350865;28;20201;-91
2021/10/08 04:47:48;;;;;;;7.67;4.00;;;;;;;12.74;59.83;99058.53;8320383;28;20208;-90
2021/10/08 04:51:52;;;;;;;6.97;3.50;;;;;;;12.82;59.91;99058.28;8320803;28;20418;-89
2021/10/08 04:55:55;;;;;;;9.13;4.20;;;;;;;12.81;60.00;99053.97;8320527;28;20409;-88
2021/10/08 04:59:58;;;;;;;5.77;3.87;;;;;;;12.80;60.31;99050.53;8320359;28;20212;-88
2021/10/08 05:04:01;;;;;;;4.63;3.70;;;;;;;12.75;60.36;99042.03;8320369;28;20212;-92
2021/10/08 05:08:06;;;;;;;7.23;4.00;;;;;;;12.86;60.05;99052.88;8321158;28;20205;-90
2021/10/08 05:12:09;;;;;;;5.67;3.90;;;;;;;12.97;60.15;99065.50;8334932;28;20239;-90
2021/10/08 05:16:12;;;;;;;7.60;3.87;;;;;;;12.97;60.30;99056.88;8352174;28;20208;-90
2021/10/08 05:20:15;;;;;;;6.70;4.07;;;;;;;12.98;60.39;99063.75;8340872;28;20197;-87
2021/10/08 05:24:19;;;;;;;5.80;4.10;;;;;;;13.03;60.41;99064.44;8329559;28;20207;-86
2021/10/08 05:28:22;;;;;;;6.07;4.00;;;;;;;13.10;60.62;99060.72;8326627;28;20208;-87
2021/10/08 05:32:25;;;;;;;6.13;4.20;;;;;;;13.05;60.38;99058.25;8321220;28;20231;-93
2021/10/08 05:36:28;;;;;;;6.57;4.40;;;;;;;13.10;60.52;99061.56;8319581;28;20209;-95
2021/10/08 05:40:32;;;;;;;7.37;4.27;;;;;;;13.08;60.73;99062.53;8320186;28;20209;-94
2021/10/08 05:44:35;;;;;;;8.17;5.00;;;;;;;13.11;60.74;99058.03;8319829;28;20212;-95
2021/10/08 05:48:38;;;;;;;6.70;4.60;;;;;;;13.11;60.94;99059.78;8320178;28;20489;-94
2021/10/08 05:52:41;;;;;;;8.53;4.40;;;;;;;13.19;60.90;99062.94;8321097;28;20236;-94
2021/10/08 05:56:45;;;;;;;10.77;4.97;;;;;;;13.22;60.85;99069.81;8337019;28;20212;-94
2021/10/08 06:00:48;;;;;;;8.60;4.93;;;;;;;13.24;60.92;99058.44;8320304;28;20201;-94
2021/10/08 06:04:51;;;;;;;8.37;4.90;;;;;;;13.26;61.25;99061.81;8320780;28;20198;-95
2021/10/08 06:08:53;;;;;;;6.33;4.90;;;;;;;13.25;61.37;99073.16;8319666;28;20201;-94
2021/10/08 06:12:58;;;;;;;11.03;5.87;;;;;;;13.28;61.31;99062.59;8318541;28;20245;-94
2021/10/08 06:17:04;;;;;;;9.10;5.77;;;;;;;13.34;60.83;99071.13;8319224;28;20204;-94
2021/10/08 06:21:06;;;;;;;8.20;5.00;;;;;;;13.29;61.38;99076.47;8319043;28;20201;-94
2021/10/08 06:25:10;;;;;;;7.73;4.27;;;;;;;13.35;61.04;99075.44;8318561;28;20217;-94
2021/10/08 06:29:15;;;;;;;6.50;4.17;;;;;;;13.47;60.84;99073.19;8318154;28;20227;-94
2021/10/08 06:33:18;;;;;;;8.40;3.00;;;;;;;14.95;72.18;99080.16;8318115;28;20225;-85
2021/10/08 06:37:20;;;;;;;10.63;5.00;;;;;;;15.47;64.20;99076.91;8317181;28;20414;-83
2021/10/08 06:41:23;;;;;;;10.17;5.70;;;;;;;16.07;58.06;99078.47;8316906;28;20205;-83
2021/10/08 06:45:28;;;;;;;7.30;5.03;;;;;;;16.23;55.49;99082.00;8317157;28;20208;-82
2021/10/08 06:49:31;;;;;;;6.63;5.00;;;;;;;15.85;53.91;99087.34;8316711;28;20205;-93
2021/10/08 06:53:34;;;;;;;46.00;8.27;;;;;;;15.15;56.65;99088.84;8318190;28;20229;-93
2021/10/08 06:57:37;;;;;;;7.73;4.50;;;;;;;14.59;57.94;99088.66;8317916;28;20514;-94
2021/10/08 07:01:41;;;;;;;8.63;5.00;;;;;;;14.50;58.00;99091.63;8319249;28;20223;-90
2021/10/08 07:05:44;;;;;;;8.33;5.20;;;;;;;14.32;58.85;99088.03;8319523;28;20205;-93
2021/10/08 07:09:49;;;;;;;9.20;5.00;;;;;;;14.23;59.18;99088.44;8323969;28;20193;-93
2021/10/08 07:13:53;;;;;;;6.00;4.40;;;;;;;14.05;59.59;99095.22;8326259;28;20244;-93
2021/10/08 07:17:58;;;;;;;7.03;4.13;;;;;;;14.09;59.71;99096.81;8330774;28;20201;-92
2021/10/08 07:27:23;;;;;;;8.07;4.63;;;;;;;14.02;60.12;99098.81;8321734;28;20203;-92
2021/10/08 07:31:26;;;;;;;7.80;4.23;;;;;;;14.05;60.08;99098.69;8324523;28;20224;-93
2021/10/08 07:35:31;;;;;;;6.53;4.40;;;;;;;14.10;60.01;99103.69;8321798;28;20211;-93
2021/10/08 07:39:34;;;;;;;6.43;4.33;;;;;;;14.16;59.92;99108.66;8321107;28;20208;-93
2021/10/08 07:43:38;;;;;;;7.70;4.73;;;;;;;14.16;59.79;99113.88;8335066;28;20201;-91
2021/10/08 07:47:41;;;;;;;7.57;4.23;;;;;;;14.16;60.59;99107.81;8338363;28;20205;-92
2021/10/08 07:51:45;;;;;;;6.40;4.27;;;;;;;14.27;60.38;99116.88;8337831;28;20536;-93
2021/10/08 07:55:48;;;;;;;11.90;4.97;;;;;;;14.22;60.39;99116.25;8337954;28;20205;-92
2021/10/08 07:59:51;;;;;;;7.53;4.60;;;;;;;14.31;60.56;99120.22;8335699;28;20208;-93
2021/10/08 08:03:54;;;;;;;7.23;4.87;;;;;;;14.30;60.80;99121.13;8331987;28;20205;-92
2021/10/08 08:07:59;;;;;;;6.63;4.50;;;;;;;14.39;60.68;99110.34;8333360;28;20205;-93
2021/10/08 08:12:02;;;;;;;6.23;4.33;;;;;;;14.51;60.43;99113.31;8332860;28;20247;-93
2021/10/08 08:16:05;;;;;;;7.93;4.67;;;;;;;14.61;60.58;99109.47;8333033;28;20391;-93
2021/10/08 08:20:10;;;;;;;7.60;4.70;;;;;;;14.69;60.93;99109.97;8330459;28;20205;-92
2021/10/08 08:24:14;;;;;;;7.07;4.73;;;;;;;14.69;60.66;99103.91;8332091;28;20209;-93
2021/10/08 08:28:17;;;;;;;9.83;5.03;;;;;;;15.10;59.56;99109.94;8335812;28;20204;-93
2021/10/08 08:32:20;;;;;;;7.57;4.90;;;;;;;15.13;58.97;99101.09;8332111;28;20225;-93
2021/10/08 08:36:23;;;;;;;11.37;5.30;;;;;;;15.19;58.91;99099.09;8323867;28;20201;-93
2021/10/08 08:40:29;;;;;;;12.23;6.07;;;;;;;15.02;59.31;99097.22;8323277;28;20211;-92
2021/10/08 08:44:32;;;;;;;9.37;6.20;;;;;;;15.05;59.69;99102.28;8323991;28;20205;-93
2021/10/08 08:48:36;;;;;;;11.00;7.00;;;;;;;15.16;59.63;99104.44;8323848;28;20205;-92
2021/10/08 08:52:38;;;;;;;9.13;6.57;;;;;;;15.23;59.35;99099.75;8322779;28;20225;-93
2021/10/08 08:56:43;;;;;;;10.47;7.17;;;;;;;14.98;60.29;99087.84;8326154;28;20205;-93
2021/10/08 09:00:56;;;;;;;9.70;8.10;;;;;;;14.94;61.35;99090.66;8329432;28;20240;-92
2021/10/08 09:05:00;;;;;;;12.13;8.70;;;;;;;14.59;62.17;99078.22;8329723;28;20208;-93
2021/10/08 09:09:17;;;;;;;12.10;8.53;;;;;;;15.22;60.61;99091.09;8328925;28;20200;-93
2021/10/08 09:13:22;;;;;;;12.70;8.53;;;;;;;15.30;60.52;99100.34;8327568;28;20251;-92
2021/10/08 09:17:25;;;;;;;13.20;8.83;;;;;;;15.41;60.36;99096.31;8328303;28;20205;-93
2021/10/08 09:21:33;;;;;;;14.20;9.30;;;;;;;15.53;60.28;99100.13;8327887;28;20201;-92
2021/10/08 09:25:38;;;;;;;10.13;8.40;;;;;;;15.61;60.77;99090.19;8328109;28;20215;-93
2021/10/08 09:29:49;;;;;;;12.60;9.33;;;;;;;15.65;60.21;99093.50;8327114;28;20204;-92
2021/10/08 09:34:10;;;;;;;13.43;9.37;;;;;;;15.69;60.76;99076.75;8326768;28;20236;-92
2021/10/08 09:38:15;;;;;;;15.10;10.10;;;;;;;15.97;60.64;99086.78;8327555;28;20201;-93
2021/10/08 09:42:21;;;;;;;13.83;10.77;;;;;;;16.02;60.35;99091.75;8327258;28;20205;-92
2021/10/08 09:46:26;;;;;;;13.43;10.80;;;;;;;16.27;59.67;99083.56;8327420;28;20205;-92
2021/10/08 09:50:29;;;;;;;15.80;11.93;;;;;;;16.21;59.96;99083.88;8327001;28;20205;-92
2021/10/08 09:54:48;;;;;;;13.70;11.60;;;;;;;16.55;58.81;99082.16;8322448;28;20235;-93
2021/10/08 09:58:52;;;;;;;14.17;11.07;;;;;;;17.86;56.29;99085.69;8327355;28;20363;-92
2021/10/08 10:03:03;;;;;;;17.00;11.23;;;;;;;18.01;55.25;99078.72;8327136;28;20201;-92
2021/10/08 10:07:05;;;;;;;13.87;10.83;;;;;;;18.19;54.57;99071.59;8327067;28;20205;-92
2021/10/08 10:11:08;;;;;;;12.97;11.07;;;;;;;18.61;52.81;99068.22;8327202;28;20235;-93
2021/10/08 10:15:11;;;;;;;13.43;11.50;;;;;;;19.25;51.36;99058.22;8327503;28;20229;-92
2021/10/08 10:19:16;;;;;;;15.03;11.50;;;;;;;18.99;51.28;99069.50;8326110;28;20207;-92
2021/10/08 10:23:20;;;;;;;13.60;11.03;;;;;;;19.45;50.04;99059.56;8326587;28;20207;-93
2021/10/08 10:27:23;;;;;;;11.80;10.43;;;;;;;19.29;50.46;99064.13;8325887;28;20201;-94
2021/10/08 10:31:27;;;;;;;12.87;10.60;;;;;;;19.62;49.38;99062.91;8320373;28;20204;-93
2021/10/08 10:35:46;;;;;;;11.53;10.33;;;;;;;19.27;48.49;99066.84;8320325;28;20235;-93
2021/10/08 10:40:18;;;;;;;11.27;10.07;;;;;;;19.11;48.85;99061.72;8319972;28;20496;-93
2021/10/08 10:44:26;;;;;;;15.80;10.13;;;;;;;19.10;49.92;99056.53;8319663;28;20203;-92
2021/10/08 10:48:31;;;;;;;10.40;9.00;;;;;;;20.09;47.78;99048.50;8317976;28;20208;-93
2021/10/08 10:52:53;;;;;;;9.37;8.37;;;;;;;19.62;46.14;99050.59;8318014;28;20312;-94
2021/10/08 10:56:56;;;;;;;10.03;8.87;;;;;;;20.25;46.09;99045.69;8317764;28;20496;-93
2021/10/08 11:01:01;;;;;;;10.20;9.20;;;;;;;19.62;46.21;99047.16;8317598;28;20205;-93
2021/10/08 11:05:25;;;;;;;9.43;8.37;;;;;;;19.62;46.59;99044.53;8318149;28;20382;-93
2021/10/08 11:09:30;;;;;;;9.27;8.37;;;;;;;20.53;44.92;99043.81;8320721;28;20215;-92
2021/10/08 11:13:34;;;;;;;9.90;7.93;;;;;;;20.23;44.63;99032.63;8331886;28;20237;-93
2021/10/08 11:17:46;;;;;;;9.23;8.33;;;;;;;20.07;45.14;99034.59;8324163;28;20209;-93
2021/10/08 11:21:52;;;;;;;10.73;8.53;;;;;;;19.42;47.33;99033.50;8328843;28;20212;-94
2021/10/08 11:25:58;;;;;;;9.93;8.50;;;;;;;19.12;48.19;99038.91;8329563;28;20197;-93
2021/10/08 11:30:03;;;;;;;11.53;8.77;;;;;;;18.65;49.38;99046.09;8325178;28;20204;-94
2021/10/08 11:34:13;;;;;;;9.17;8.00;;;;;;;18.47;49.76;99034.94;8323534;28;20229;-91
2021/10/08 11:38:19;;;;;;;10.83;8.90;;;;;;;18.58;49.56;99031.66;8326056;28;20206;-91
2021/10/08 11:42:26;;;;;;;8.97;8.17;;;;;;;18.66;50.01;99033.84;8338973;28;20260;-92
2021/10/08 11:46:36;;;;;;;8.63;7.77;;;;;;;19.37;48.04;99021.63;8338937;28;20201;-93
2021/10/08 11:50:46;;;;;;;8.90;8.00;;;;;;;19.35;47.42;99019.09;8337455;28;20200;-93
2021/10/08 11:55:03;;;;;;;9.10;8.20;;;;;;;20.08;45.51;99010.81;8338534;28;20224;-93
2021/10/08 11:59:11;;;;;;;9.23;7.80;;;;;;;19.30;46.28;99016.72;8332886;28;20204;-94
2021/10/08 12:03:16;;;;;;;9.93;8.27;;;;;;;19.32;46.75;99007.00;8322923;28;20201;-93
2021/10/08 12:07:20;;;;;;;9.20;8.30;;;;;;;18.94;47.07;99015.50;8322323;28;20207;-93
2021/10/08 12:11:22;;;;;;;10.00;7.67;;;;;;;18.97;46.84;99006.59;8322190;28;20249;-94
2021/10/08 12:15:28;;;;;;;8.23;7.33;;;;;;;18.82;47.69;99002.28;8321999;28;20236;-89
2021/10/08 12:19:31;;;;;;;9.53;8.23;;;;;;;18.93;47.18;98992.81;8321841;28;20216;-90
2021/10/08 12:23:34;;;;;;;8.17;7.47;;;;;;;19.37;44.60;98998.81;8321629;28;20212;-90
2021/10/08 12:27:38;;;;;;;10.07;7.30;;;;;;;19.20;43.57;99001.69;8320830;28;20493;-87
2021/10/08 12:31:51;;;;;;;9.03;7.20;;;;;;;19.48;43.70;98988.47;8321496;28;20201;-91
2021/10/08 12:36:20;;;;;;;8.20;7.40;;;;;;;20.17;43.67;98992.75;8321310;28;20235;-91
2021/10/08 12:40:23;;;;;;;8.33;7.07;;;;;;;20.39;43.15;98992.13;8321599;28;20201;-93
2021/10/08 12:44:29;;;;;;;8.60;6.80;;;;;;;20.56;42.49;98981.31;8320956;28;20201;-92
2021/10/08 12:48:34;;;;;;;7.47;6.53;;;;;;;20.42;41.28;98978.78;8321268;28;20271;-92
2021/10/08 12:52:39;;;;;;;8.73;7.70;;;;;;;19.54;42.69;98979.34;8321073;28;20395;-92
2021/10/08 12:56:42;;;;;;;9.07;7.83;;;;;;;19.86;42.03;98982.50;8321117;28;20252;-93
2021/10/08 13:00:47;;;;;;;10.57;7.83;;;;;;;20.55;41.24;98981.41;8328616;28;20204;-91
2021/10/08 13:05:05;;;;;;;13.53;8.70;;;;;;;19.94;41.67;98983.78;8340613;28;20196;-90
2021/10/08 13:09:13;;;;;;;8.10;7.30;;;;;;;20.68;40.70;98975.19;8335383;28;20223;-89
2021/10/08 13:13:21;;;;;;;8.10;7.30;;;;;;;20.79;39.88;98976.22;8336918;28;20232;-92
2021/10/08 13:17:27;;;;;;;7.57;6.87;;;;;;;21.00;39.43;98963.34;8352591;28;20388;-91
2021/10/08 13:21:31;;;;;;;8.40;6.97;;;;;;;21.02;37.94;98969.34;8329854;28;20201;-95
2021/10/08 13:25:36;;;;;;;7.80;7.00;;;;;;;21.05;36.75;98963.84;8319635;28;20209;-90
2021/10/08 13:29:39;;;;;;;9.40;7.27;;;;;;;20.96;38.18;98968.00;8319964;28;20207;-91
2021/10/08 13:33:42;;;;;;;9.77;7.23;;;;;;;21.37;38.39;98964.16;8319738;28;20245;-92
2021/10/08 13:37:48;;;;;;;7.90;7.20;;;;;;;21.09;37.08;98958.28;8318645;28;20365;-91
2021/10/08 13:41:50;;;;;;;11.87;7.67;;;;;;;21.07;38.05;98959.31;8319592;28;20206;-90
2021/10/08 13:45:54;;;;;;;7.53;6.83;;;;;;;21.21;39.01;98958.31;8324970;28;20208;-91
2021/10/08 13:49:57;;;;;;;11.13;7.73;;;;;;;20.65;39.89;98953.53;8319759;28;20212;-90
2021/10/08 13:54:01;;;;;;;7.87;7.07;;;;;;;20.48;39.17;98957.28;8319343;28;20221;-89
2021/10/08 13:58:07;;;;;;;9.57;7.40;;;;;;;20.28;40.09;98953.44;8318867;28;20202;-90
2021/10/08 14:02:12;;;;;;;8.27;7.10;;;;;;;19.59;41.77;98955.38;8345551;28;20201;-90
2021/10/08 14:06:44;;;;;;;8.37;7.53;;;;;;;19.43;40.20;98951.13;8368748;28;20209;-92
2021/10/08 14:10:47;;;;;;;11.50;7.47;;;;;;;20.27;38.85;98943.84;8368256;28;20225;-91
2021/10/08 14:14:51;;;;;;;9.13;7.77;;;;;;;20.29;38.84;98934.88;8336686;28;20225;-90
2021/10/08 14:18:53;;;;;;;9.37;7.67;;;;;;;20.39;37.81;98937.75;8328312;28;20387;-89
2021/10/08 14:22:56;;;;;;;9.50;7.63;;;;;;;20.48;38.15;98937.06;8323559;28;20404;-92
2021/10/08 14:27:01;;;;;;;8.73;7.17;;;;;;;20.60;38.57;98926.69;8319665;28;20201;-94
2021/10/08 14:31:04;;;;;;;8.57;7.77;;;;;;;20.17;40.01;98925.22;8318396;28;20234;-92
2021/10/08 14:35:09;;;;;;;7.70;6.90;;;;;;;20.30;40.11;98928.69;8295271;28;20230;-92
2021/10/08 14:39:12;;;;;;;17.17;8.13;;;;;;;19.67;40.45;98926.84;8315979;28;20199;-92
2021/10/08 14:43:16;;;;;;;9.97;7.83;;;;;;;20.13;39.93;98925.56;8316296;28;20209;-92
2021/10/08 14:47:19;;;;;;;10.60;7.97;;;;;;;20.13;39.20;98928.19;8308103;28;20497;-90
2021/10/08 14:51:26;;;;;;;8.90;8.00;;;;;;;19.50;40.30;98926.16;8327342;28;20200;-92
2021/10/08 14:59:53;;;;;;;9.27;7.63;;;;;;;19.61;40.92;98933.34;8300248;28;20204;-90
2021/10/08 15:03:56;;;;;;;11.40;8.17;;;;;;;19.36;42.17;98928.81;8301022;28;20193;-92
2021/10/08 15:07:58;;;;;;;14.37;8.77;;;;;;;19.19;42.64;98929.94;8302273;28;20395;-91
2021/10/08 15:12:02;;;;;;;9.50;8.23;;;;;;;19.10;42.72;98930.53;8304016;28;20245;-91
2021/10/08 15:16:07;;;;;;;9.50;8.33;;;;;;;19.24;42.35;98919.97;8311535;28;20575;-91
2021/10/08 15:20:11;;;;;;;9.57;8.53;;;;;;;19.04;43.66;98923.03;8300939;28;20198;-91
2021/10/08 15:24:14;;;;;;;9.63;8.73;;;;;;;18.85;44.79;98918.97;8322446;28;20539;-91
2021/10/08 15:28:17;;;;;;;10.20;8.70;;;;;;;18.53;45.23;98929.66;8304058;28;20206;-91
2021/10/08 15:32:21;;;;;;;10.27;8.70;;;;;;;18.48;46.26;98923.00;8300637;28;21053;-91
2021/10/08 15:36:24;;;;;;;11.23;9.00;;;;;;;18.39;46.50;98923.56;8314130;28;20228;-91
2021/10/08 15:40:27;;;;;;;10.50;9.40;;;;;;;18.39;46.69;98927.06;8302338;28;20222;-92
2021/10/08 15:44:29;;;;;;;13.50;10.80;;;;;;;18.33;47.33;98930.03;8299927;28;20694;-91
2021/10/08 15:48:34;;;;;;;11.43;10.23;;;;;;;18.43;47.75;98932.94;8299612;28;20205;-90
2021/10/08 15:52:37;;;;;;;16.07;10.10;;;;;;;18.35;47.99;98936.88;8298648;28;20197;-91
2021/10/08 15:56:40;;;;;;;9.90;8.60;;;;;;;18.22;48.02;98938.56;8299612;28;20221;-92
2021/10/08 16:00:43;;;;;;;12.73;10.30;;;;;;;18.11;48.79;98940.97;8297362;28;20194;-91
2021/10/08 16:04:48;;;;;;;11.30;10.03;;;;;;;18.06;48.83;98953.50;8294457;28;20221;-92
2021/10/08 16:08:51;;;;;;;11.03;9.93;;;;;;;17.99;48.98;98953.00;8304149;28;20194;-92
2021/10/08 16:12:54;;;;;;;12.63;11.00;;;;;;;17.95;49.04;98968.09;8294130;28;20255;-92
2021/10/08 16:16:59;;;;;;;12.40;10.53;;;;;;;17.86;49.03;98963.41;8312634;28;20224;-92
2021/10/08 16:21:03;;;;;;;26.97;7.73;;;;;;;17.92;52.09;98967.44;8324437;28;20272;-91
2021/10/08 16:25:07;;;;;;;13.60;12.20;;;;;;;17.70;50.04;98971.25;8331348;28;20421;-90
2021/10/08 16:29:10;;;;;;;14.57;11.43;;;;;;;17.63;50.40;98975.19;8328978;28;20196;-89
2021/10/08 16:33:13;;;;;;;15.90;11.30;;;;;;;17.50;50.73;98975.03;8329793;28;20272;-89
2021/10/08 16:37:18;;;;;;;13.23;11.80;;;;;;;17.36;50.85;98986.28;8320746;28;20224;-91
2021/10/08 16:41:20;;;;;;;19.93;11.90;;;;;;;17.35;52.40;98989.81;8320979;28;20418;-91
2021/10/08 16:45:23;;;;;;;13.30;11.90;;;;;;;17.02;52.10;98989.06;8320770;28;20202;-92
2021/10/08 16:49:26;;;;;;;18.43;12.10;;;;;;;16.98;51.74;98984.00;8321132;28;20197;-94
2021/10/08 16:53:31;;;;;;;15.33;12.30;;;;;;;17.19;51.22;98989.84;8321006;28;20201;-95
2021/10/08 16:57:33;;;;;;;18.80;12.60;;;;;;;17.24;51.78;99001.81;8320711;28;20225;-94
2021/10/08 17:01:36;;;;;;;14.10;12.60;;;;;;;17.19;51.80;98992.44;8320842;28;20519;-94
2021/10/08 17:05:43;;;;;;;15.30;13.60;;;;;;;17.16;51.62;98995.22;8319804;28;20197;-95
2021/10/08 17:09:47;;;;;;;17.60;13.97;;;;;;;17.12;52.05;98996.31;8320167;28;20197;-94
2021/10/08 17:13:50;;;;;;;17.10;13.70;;;;;;;16.99;52.02;99003.16;8318676;28;20236;-95
2021/10/08 17:17:53;;;;;;;15.50;13.77;;;;;;;16.98;52.13;99001.44;8287772;28;20235;-95
2021/10/08 17:21:56;;;;;;;14.60;13.10;;;;;;;16.94;51.99;99002.56;8287687;28;20212;-94
2021/10/08 17:26:01;;;;;;;17.17;13.80;;;;;;;17.13;51.81;99007.63;8329580;28;20204;-90
2021/10/08 17:30:23;;;;;;;18.23;13.87;;;;;;;17.03;52.26;99009.06;8319577;28;20212;-90
2021/10/08 17:34:26;;;;;;;16.63;14.50;;;;;;;17.00;52.25;99012.69;8319781;28;20212;-90
2021/10/08 17:38:28;;;;;;;17.43;13.93;;;;;;;16.98;52.27;99011.91;8319569;28;20531;-91
2021/10/08 17:42:33;;;;;;;17.13;14.37;;;;;;;16.89;52.73;99017.69;8319149;28;20497;-90
2021/10/08 17:46:36;;;;;;;20.40;14.40;;;;;;;16.81;52.84;99015.41;8323196;28;20283;-92
2021/10/08 17:50:40;;;;;;;16.83;14.40;;;;;;;16.83;52.92;99025.81;8319569;28;20488;-89
2021/10/08 17:54:44;;;;;;;17.20;15.10;;;;;;;16.74;53.04;99017.53;8286349;28;20216;-91
2021/10/08 17:58:50;;;;;;;18.10;15.33;;;;;;;16.74;53.25;99022.75;8286411;28;20201;-95
2021/10/08 18:02:53;;;;;;;25.13;15.20;;;;;;;16.83;53.21;99020.59;8294600;28;20221;-92
2021/10/08 18:06:56;;;;;;;21.27;16.10;;;;;;;16.53;53.80;99016.88;8335128;28;20225;-88
2021/10/08 18:10:59;;;;;;;22.10;16.10;;;;;;;16.44;53.91;99019.97;8330711;28;20223;-88
2021/10/08 18:15:04;;;;;;;19.37;16.13;;;;;;;16.57;53.81;99018.41;8333817;28;20204;-89
2021/10/08 18:19:26;;;;;;;18.93;15.67;;;;;;;16.38;54.27;99015.91;8332154;28;20207;-89
2021/10/08 18:23:29;;;;;;;23.43;17.17;;;;;;;16.20;54.46;99017.69;8333194;28;20193;-88
2021/10/08 18:27:31;;;;;;;20.83;16.70;;;;;;;16.22;54.62;99020.19;8333236;28;20207;-87
2021/10/08 18:31:37;;;;;;;21.00;17.03;;;;;;;16.16;54.71;99034.44;8333174;28;20197;-88
2021/10/08 18:35:40;;;;;;;24.53;17.30;;;;;;;16.20;54.90;99024.66;8330343;28;20216;-87
2021/10/08 18:39:43;;;;;;;22.53;17.37;;;;;;;16.05;55.00;99017.59;8331259;28;20193;-86
2021/10/08 18:43:46;;;;;;;19.73;17.17;;;;;;;15.94;55.15;99020.75;8332675;28;20197;-88
2021/10/08 18:47:51;;;;;;;25.17;17.27;;;;;;;15.90;55.29;99027.06;8332770;28;20268;-90
2021/10/08 18:51:58;;;;;;;24.33;18.00;;;;;;;15.89;55.48;99018.34;8318003;28;20485;-90
2021/10/08 18:56:02;;;;;;;24.50;18.27;;;;;;;15.76;55.71;99012.03;8318021;28;20229;-90
2021/10/08 19:00:07;;;;;;;25.60;17.67;;;;;;;15.76;55.85;99025.97;8325310;28;20373;-90
2021/10/08 19:04:13;;;;;;;26.23;17.70;;;;;;;15.83;55.07;99019.50;8317565;28;20255;-90
2021/10/08 19:08:19;;;;;;;23.27;18.47;;;;;;;15.75;55.52;99008.59;8317647;28;20213;-91
2021/10/08 19:12:31;;;;;;;28.03;18.93;;;;;;;15.74;55.63;99016.50;8316935;28;20581;-90
2021/10/08 19:20:55;;;;;;;22.27;17.03;;;;;;;15.65;55.69;99020.41;8332231;28;20192;-88